sensor_id;sensor_type;location;lat;lon;timestamp;P1;durP1;ratioP1;P2;durP2;ratioP2
9761;SDS011;4920;49.594;11.022;2023-02-24T00:00:32;39.60;;;24.20;;
9761;SDS011;4920;49.594;11.022;2023-02-24T00:03:04;36.87;;;23.90;;
9761;SDS011;4920;49.594;11.022;2023-02-24T00:05:37;37.33;;;24.37;;
9761;SDS011;4920;49.594;11.022;2023-02-24T00:08:10;44.07;;;24.60;;
9761;SDS011;4920;49.594;11.022;2023-02-24T00:10:40;38.97;;;24.10;;
9761;SDS011;4920;49.594;11.022;2023-02-24T00:13:08;37.37;;;23.90;;
9761;SDS011;4920;49.594;11.022;2023-02-24T00:15:38;38.30;;;23.73;;
9761;SDS011;4920;49.594;11.022;2023-02-24T00:18:07;41.33;;;25.07;;
9761;SDS011;4920;49.594;11.022;2023-02-24T00:20:36;40.67;;;25.13;;
9761;SDS011;4920;49.594;11.022;2023-02-24T00:23:05;40.43;;;24.43;;
9761;SDS011;4920;49.594;11.022;2023-02-24T00:25:35;39.40;;;24.47;;
9761;SDS011;4920;49.594;11.022;2023-02-24T00:28:05;39.70;;;24.90;;
9761;SDS011;4920;49.594;11.022;2023-02-24T00:30:34;40.50;;;24.80;;
9761;SDS011;4920;49.594;11.022;2023-02-24T00:33:03;39.63;;;24.17;;
9761;SDS011;4920;49.594;11.022;2023-02-24T00:35:33;39.73;;;24.43;;
9761;SDS011;4920;49.594;11.022;2023-02-24T00:38:01;40.17;;;23.43;;
9761;SDS011;4920;49.594;11.022;2023-02-24T00:40:30;39.23;;;24.07;;
9761;SDS011;4920;49.594;11.022;2023-02-24T00:43:02;40.13;;;24.10;;
9761;SDS011;4920;49.594;11.022;2023-02-24T00:45:35;38.83;;;23.13;;
9761;SDS011;4920;49.594;11.022;2023-02-24T00:48:04;40.33;;;24.60;;
9761;SDS011;4920;49.594;11.022;2023-02-24T00:50:36;37.60;;;23.87;;
9761;SDS011;4920;49.594;11.022;2023-02-24T00:53:07;39.57;;;23.80;;
9761;SDS011;4920;49.594;11.022;2023-02-24T00:55:36;41.23;;;24.07;;
9761;SDS011;4920;49.594;11.022;2023-02-24T00:58:04;38.83;;;23.43;;
9761;SDS011;4920;49.594;11.022;2023-02-24T01:00:33;37.77;;;24.27;;
9761;SDS011;4920;49.594;11.022;2023-02-24T01:03:04;40.00;;;23.77;;
9761;SDS011;4920;49.594;11.022;2023-02-24T01:05:35;38.30;;;23.77;;
9761;SDS011;4920;49.594;11.022;2023-02-24T01:08:04;37.97;;;24.30;;
9761;SDS011;4920;49.594;11.022;2023-02-24T01:10:33;40.27;;;23.77;;
9761;SDS011;4920;49.594;11.022;2023-02-24T01:13:02;41.73;;;24.20;;
9761;SDS011;4920;49.594;11.022;2023-02-24T01:15:30;40.13;;;23.57;;
9761;SDS011;4920;49.594;11.022;2023-02-24T01:18:00;39.37;;;23.80;;
9761;SDS011;4920;49.594;11.022;2023-02-24T01:20:30;43.07;;;24.70;;
9761;SDS011;4920;49.594;11.022;2023-02-24T01:22:58;43.03;;;24.30;;
9761;SDS011;4920;49.594;11.022;2023-02-24T01:25:29;41.13;;;24.27;;
9761;SDS011;4920;49.594;11.022;2023-02-24T01:27:58;41.17;;;24.77;;
9761;SDS011;4920;49.594;11.022;2023-02-24T01:30:27;38.80;;;23.33;;
9761;SDS011;4920;49.594;11.022;2023-02-24T01:32:57;42.30;;;25.03;;
9761;SDS011;4920;49.594;11.022;2023-02-24T01:35:29;40.53;;;24.47;;
9761;SDS011;4920;49.594;11.022;2023-02-24T01:38:00;41.27;;;24.37;;
9761;SDS011;4920;49.594;11.022;2023-02-24T01:40:29;41.40;;;24.93;;
9761;SDS011;4920;49.594;11.022;2023-02-24T01:42:58;46.57;;;25.77;;
9761;SDS011;4920;49.594;11.022;2023-02-24T01:45:28;41.43;;;24.67;;
9761;SDS011;4920;49.594;11.022;2023-02-24T01:48:02;39.43;;;24.13;;
9761;SDS011;4920;49.594;11.022;2023-02-24T01:50:37;39.20;;;24.40;;
9761;SDS011;4920;49.594;11.022;2023-02-24T01:53:08;41.10;;;24.60;;
9761;SDS011;4920;49.594;11.022;2023-02-24T01:55:39;39.30;;;24.47;;
9761;SDS011;4920;49.594;11.022;2023-02-24T01:58:14;41.27;;;24.67;;
9761;SDS011;4920;49.594;11.022;2023-02-24T02:00:49;43.57;;;25.47;;
9761;SDS011;4920;49.594;11.022;2023-02-24T02:03:21;41.43;;;24.93;;
9761;SDS011;4920;49.594;11.022;2023-02-24T02:05:54;43.90;;;25.20;;
9761;SDS011;4920;49.594;11.022;2023-02-24T02:08:28;44.40;;;25.37;;
9761;SDS011;4920;49.594;11.022;2023-02-24T02:10:59;44.77;;;25.03;;
9761;SDS011;4920;49.594;11.022;2023-02-24T02:13:32;44.43;;;26.17;;
9761;SDS011;4920;49.594;11.022;2023-02-24T02:22:35;42.90;;;25.20;;
9761;SDS011;4920;49.594;11.022;2023-02-24T02:25:23;45.80;;;26.23;;
9761;SDS011;4920;49.594;11.022;2023-02-24T02:31:10;46.27;;;25.60;;
9761;SDS011;4920;49.594;11.022;2023-02-24T02:37:01;48.30;;;27.20;;
9761;SDS011;4920;49.594;11.022;2023-02-24T02:39:37;46.30;;;26.73;;
9761;SDS011;4920;49.594;11.022;2023-02-24T02:42:18;50.87;;;28.10;;
9761;SDS011;4920;49.594;11.022;2023-02-24T02:44:58;52.17;;;27.70;;
9761;SDS011;4920;49.594;11.022;2023-02-24T02:47:36;50.93;;;28.07;;
9761;SDS011;4920;49.594;11.022;2023-02-24T02:50:11;53.00;;;29.40;;
9761;SDS011;4920;49.594;11.022;2023-02-24T02:52:46;51.57;;;28.73;;
9761;SDS011;4920;49.594;11.022;2023-02-24T02:55:21;54.23;;;27.77;;
9761;SDS011;4920;49.594;11.022;2023-02-24T02:57:56;58.90;;;30.67;;
9761;SDS011;4920;49.594;11.022;2023-02-24T03:00:30;56.27;;;29.70;;
9761;SDS011;4920;49.594;11.022;2023-02-24T03:03:04;56.37;;;30.03;;
9761;SDS011;4920;49.594;11.022;2023-02-24T03:05:45;55.33;;;29.53;;
9761;SDS011;4920;49.594;11.022;2023-02-24T03:08:20;58.53;;;30.93;;
9761;SDS011;4920;49.594;11.022;2023-02-24T03:10:52;56.17;;;29.37;;
9761;SDS011;4920;49.594;11.022;2023-02-24T03:13:26;56.77;;;30.03;;
9761;SDS011;4920;49.594;11.022;2023-02-24T03:15:59;59.67;;;30.57;;
9761;SDS011;4920;49.594;11.022;2023-02-24T03:18:31;56.67;;;30.10;;
9761;SDS011;4920;49.594;11.022;2023-02-24T03:21:05;59.73;;;31.23;;
9761;SDS011;4920;49.594;11.022;2023-02-24T03:23:39;56.60;;;30.83;;
9761;SDS011;4920;49.594;11.022;2023-02-24T03:26:13;62.10;;;31.50;;
9761;SDS011;4920;49.594;11.022;2023-02-24T03:28:52;54.20;;;28.93;;
9761;SDS011;4920;49.594;11.022;2023-02-24T03:31:30;59.60;;;31.53;;
9761;SDS011;4920;49.594;11.022;2023-02-24T03:34:07;56.37;;;30.07;;
9761;SDS011;4920;49.594;11.022;2023-02-24T03:36:43;61.10;;;30.60;;
9761;SDS011;4920;49.594;11.022;2023-02-24T03:39:14;56.27;;;29.63;;
9761;SDS011;4920;49.594;11.022;2023-02-24T03:41:54;56.13;;;30.20;;
9761;SDS011;4920;49.594;11.022;2023-02-24T03:44:28;62.00;;;31.10;;
9761;SDS011;4920;49.594;11.022;2023-02-24T03:46:56;59.57;;;31.00;;
9761;SDS011;4920;49.594;11.022;2023-02-24T03:49:25;56.37;;;30.40;;
9761;SDS011;4920;49.594;11.022;2023-02-24T03:52:01;61.57;;;31.20;;
9761;SDS011;4920;49.594;11.022;2023-02-24T03:54:43;59.10;;;30.33;;
9761;SDS011;4920;49.594;11.022;2023-02-24T03:57:27;57.40;;;31.57;;
9761;SDS011;4920;49.594;11.022;2023-02-24T04:00:27;60.87;;;30.67;;
9761;SDS011;4920;49.594;11.022;2023-02-24T04:03:05;60.73;;;31.83;;
9761;SDS011;4920;49.594;11.022;2023-02-24T04:05:43;58.80;;;30.33;;
9761;SDS011;4920;49.594;11.022;2023-02-24T04:08:19;54.90;;;29.97;;
9761;SDS011;4920;49.594;11.022;2023-02-24T04:10:53;62.67;;;31.27;;
9761;SDS011;4920;49.594;11.022;2023-02-24T04:13:36;57.87;;;30.33;;
9761;SDS011;4920;49.594;11.022;2023-02-24T04:16:27;59.70;;;30.70;;
9761;SDS011;4920;49.594;11.022;2023-02-24T04:19:12;54.87;;;30.20;;
9761;SDS011;4920;49.594;11.022;2023-02-24T04:21:53;60.73;;;31.10;;
9761;SDS011;4920;49.594;11.022;2023-02-24T04:24:29;56.47;;;29.77;;
9761;SDS011;4920;49.594;11.022;2023-02-24T04:27:11;56.10;;;28.90;;
9761;SDS011;4920;49.594;11.022;2023-02-24T04:30:19;54.63;;;28.83;;
9761;SDS011;4920;49.594;11.022;2023-02-24T04:37:00;61.30;;;30.53;;
9761;SDS011;4920;49.594;11.022;2023-02-24T04:39:35;56.63;;;29.90;;
9761;SDS011;4920;49.594;11.022;2023-02-24T04:42:19;56.27;;;29.63;;
9761;SDS011;4920;49.594;11.022;2023-02-24T04:44:47;54.83;;;29.53;;
9761;SDS011;4920;49.594;11.022;2023-02-24T04:47:16;56.83;;;30.43;;
9761;SDS011;4920;49.594;11.022;2023-02-24T04:49:45;60.03;;;30.10;;
9761;SDS011;4920;49.594;11.022;2023-02-24T04:52:14;58.83;;;30.30;;
9761;SDS011;4920;49.594;11.022;2023-02-24T04:54:45;56.40;;;29.30;;
9761;SDS011;4920;49.594;11.022;2023-02-24T04:57:13;56.93;;;29.20;;
9761;SDS011;4920;49.594;11.022;2023-02-24T04:59:42;56.80;;;29.07;;
9761;SDS011;4920;49.594;11.022;2023-02-24T05:02:12;57.80;;;30.30;;
9761;SDS011;4920;49.594;11.022;2023-02-24T05:04:45;57.10;;;30.13;;
9761;SDS011;4920;49.594;11.022;2023-02-24T05:07:15;53.17;;;29.07;;
9761;SDS011;4920;49.594;11.022;2023-02-24T05:09:46;57.10;;;29.03;;
9761;SDS011;4920;49.594;11.022;2023-02-24T05:12:14;56.50;;;28.80;;
9761;SDS011;4920;49.594;11.022;2023-02-24T05:14:43;52.70;;;28.03;;
9761;SDS011;4920;49.594;11.022;2023-02-24T05:17:15;53.13;;;27.93;;
9761;SDS011;4920;49.594;11.022;2023-02-24T05:19:44;54.67;;;29.10;;
9761;SDS011;4920;49.594;11.022;2023-02-24T05:22:30;60.57;;;29.50;;
9761;SDS011;4920;49.594;11.022;2023-02-24T05:25:01;56.07;;;28.17;;
9761;SDS011;4920;49.594;11.022;2023-02-24T05:27:30;55.43;;;28.90;;
9761;SDS011;4920;49.594;11.022;2023-02-24T05:30:05;51.27;;;28.40;;
9761;SDS011;4920;49.594;11.022;2023-02-24T05:32:35;66.67;;;30.20;;
9761;SDS011;4920;49.594;11.022;2023-02-24T05:35:04;52.73;;;28.47;;
9761;SDS011;4920;49.594;11.022;2023-02-24T05:37:35;59.17;;;30.03;;
9761;SDS011;4920;49.594;11.022;2023-02-24T05:40:10;53.50;;;29.43;;
9761;SDS011;4920;49.594;11.022;2023-02-24T05:42:40;57.87;;;29.47;;
9761;SDS011;4920;49.594;11.022;2023-02-24T05:45:11;55.13;;;29.40;;
9761;SDS011;4920;49.594;11.022;2023-02-24T05:47:39;55.93;;;30.10;;
9761;SDS011;4920;49.594;11.022;2023-02-24T05:53:20;54.20;;;28.60;;
9761;SDS011;4920;49.594;11.022;2023-02-24T05:55:51;53.27;;;28.77;;
9761;SDS011;4920;49.594;11.022;2023-02-24T05:58:20;54.83;;;29.37;;
9761;SDS011;4920;49.594;11.022;2023-02-24T06:00:50;53.47;;;29.63;;
9761;SDS011;4920;49.594;11.022;2023-02-24T06:03:19;56.40;;;30.07;;
9761;SDS011;4920;49.594;11.022;2023-02-24T06:05:56;54.97;;;30.00;;
9761;SDS011;4920;49.594;11.022;2023-02-24T06:08:31;55.07;;;30.20;;
9761;SDS011;4920;49.594;11.022;2023-02-24T06:11:09;51.20;;;29.10;;
9761;SDS011;4920;49.594;11.022;2023-02-24T06:13:39;59.30;;;30.30;;
9761;SDS011;4920;49.594;11.022;2023-02-24T06:16:10;53.87;;;28.57;;
9761;SDS011;4920;49.594;11.022;2023-02-24T06:18:40;54.17;;;29.67;;
9761;SDS011;4920;49.594;11.022;2023-02-24T06:21:10;54.77;;;29.60;;
9761;SDS011;4920;49.594;11.022;2023-02-24T06:23:39;54.23;;;30.27;;
9761;SDS011;4920;49.594;11.022;2023-02-24T06:26:09;57.57;;;30.27;;
9761;SDS011;4920;49.594;11.022;2023-02-24T06:28:39;55.43;;;29.83;;
9761;SDS011;4920;49.594;11.022;2023-02-24T06:31:09;57.80;;;31.10;;
9761;SDS011;4920;49.594;11.022;2023-02-24T06:33:39;63.80;;;30.30;;
9761;SDS011;4920;49.594;11.022;2023-02-24T06:36:11;57.17;;;29.40;;
9761;SDS011;4920;49.594;11.022;2023-02-24T06:38:41;51.57;;;28.57;;
9761;SDS011;4920;49.594;11.022;2023-02-24T06:41:11;57.60;;;28.70;;
9761;SDS011;4920;49.594;11.022;2023-02-24T06:43:40;53.17;;;28.53;;
9761;SDS011;4920;49.594;11.022;2023-02-24T06:46:11;56.30;;;29.67;;
9761;SDS011;4920;49.594;11.022;2023-02-24T06:48:41;55.03;;;29.47;;
9761;SDS011;4920;49.594;11.022;2023-02-24T06:51:10;55.90;;;28.30;;
9761;SDS011;4920;49.594;11.022;2023-02-24T06:53:41;54.33;;;29.07;;
9761;SDS011;4920;49.594;11.022;2023-02-24T06:56:12;56.13;;;29.27;;
9761;SDS011;4920;49.594;11.022;2023-02-24T06:58:46;55.23;;;29.23;;
9761;SDS011;4920;49.594;11.022;2023-02-24T07:01:18;52.87;;;28.50;;
9761;SDS011;4920;49.594;11.022;2023-02-24T07:03:52;55.80;;;29.53;;
9761;SDS011;4920;49.594;11.022;2023-02-24T07:06:44;52.17;;;28.43;;
9761;SDS011;4920;49.594;11.022;2023-02-24T07:09:18;52.03;;;28.87;;
9761;SDS011;4920;49.594;11.022;2023-02-24T07:11:50;51.77;;;28.37;;
9761;SDS011;4920;49.594;11.022;2023-02-24T07:14:22;55.60;;;28.83;;
9761;SDS011;4920;49.594;11.022;2023-02-24T07:16:52;53.47;;;28.53;;
9761;SDS011;4920;49.594;11.022;2023-02-24T07:19:24;49.90;;;28.17;;
9761;SDS011;4920;49.594;11.022;2023-02-24T07:21:56;51.60;;;27.97;;
9761;SDS011;4920;49.594;11.022;2023-02-24T07:24:27;50.83;;;28.20;;
9761;SDS011;4920;49.594;11.022;2023-02-24T07:27:05;57.90;;;29.47;;
9761;SDS011;4920;49.594;11.022;2023-02-24T07:29:35;49.87;;;28.90;;
9761;SDS011;4920;49.594;11.022;2023-02-24T07:32:05;45.17;;;26.67;;
9761;SDS011;4920;49.594;11.022;2023-02-24T07:34:35;49.53;;;27.97;;
9761;SDS011;4920;49.594;11.022;2023-02-24T07:37:06;51.73;;;28.13;;
9761;SDS011;4920;49.594;11.022;2023-02-24T07:39:36;51.93;;;28.40;;
9761;SDS011;4920;49.594;11.022;2023-02-24T07:42:08;49.60;;;28.10;;
9761;SDS011;4920;49.594;11.022;2023-02-24T07:44:43;50.77;;;27.70;;
9761;SDS011;4920;49.594;11.022;2023-02-24T07:47:15;49.10;;;27.33;;
9761;SDS011;4920;49.594;11.022;2023-02-24T07:49:44;49.83;;;28.33;;
9761;SDS011;4920;49.594;11.022;2023-02-24T07:52:12;51.97;;;28.73;;
9761;SDS011;4920;49.594;11.022;2023-02-24T07:54:41;52.03;;;27.57;;
9761;SDS011;4920;49.594;11.022;2023-02-24T07:57:12;46.47;;;26.67;;
9761;SDS011;4920;49.594;11.022;2023-02-24T07:59:40;51.30;;;27.77;;
9761;SDS011;4920;49.594;11.022;2023-02-24T08:02:13;49.03;;;27.07;;
9761;SDS011;4920;49.594;11.022;2023-02-24T08:04:42;48.80;;;26.90;;
9761;SDS011;4920;49.594;11.022;2023-02-24T08:07:16;50.00;;;27.07;;
9761;SDS011;4920;49.594;11.022;2023-02-24T08:09:51;49.80;;;27.53;;
9761;SDS011;4920;49.594;11.022;2023-02-24T08:12:41;47.70;;;27.47;;
9761;SDS011;4920;49.594;11.022;2023-02-24T08:15:10;48.27;;;26.77;;
9761;SDS011;4920;49.594;11.022;2023-02-24T08:17:50;45.50;;;27.50;;
9761;SDS011;4920;49.594;11.022;2023-02-24T08:20:25;47.50;;;26.10;;
9761;SDS011;4920;49.594;11.022;2023-02-24T08:22:55;48.60;;;26.60;;
9761;SDS011;4920;49.594;11.022;2023-02-24T08:25:25;47.40;;;26.40;;
9761;SDS011;4920;49.594;11.022;2023-02-24T08:28:04;47.37;;;27.17;;
9761;SDS011;4920;49.594;11.022;2023-02-24T08:30:38;44.17;;;25.77;;
9761;SDS011;4920;49.594;11.022;2023-02-24T08:33:12;43.03;;;25.87;;
9761;SDS011;4920;49.594;11.022;2023-02-24T08:35:49;48.40;;;26.47;;
9761;SDS011;4920;49.594;11.022;2023-02-24T08:38:28;45.83;;;26.10;;
9761;SDS011;4920;49.594;11.022;2023-02-24T08:41:11;46.93;;;26.40;;
9761;SDS011;4920;49.594;11.022;2023-02-24T08:43:46;42.70;;;25.53;;
9761;SDS011;4920;49.594;11.022;2023-02-24T08:46:16;45.73;;;24.67;;
9761;SDS011;4920;49.594;11.022;2023-02-24T08:48:51;43.40;;;24.47;;
9761;SDS011;4920;49.594;11.022;2023-02-24T08:51:23;45.17;;;24.97;;
9761;SDS011;4920;49.594;11.022;2023-02-24T08:53:55;44.40;;;25.33;;
9761;SDS011;4920;49.594;11.022;2023-02-24T08:56:26;42.37;;;25.03;;
9761;SDS011;4920;49.594;11.022;2023-02-24T08:58:58;43.03;;;25.03;;
9761;SDS011;4920;49.594;11.022;2023-02-24T09:01:33;41.00;;;25.37;;
9761;SDS011;4920;49.594;11.022;2023-02-24T09:04:04;43.17;;;25.53;;
9761;SDS011;4920;49.594;11.022;2023-02-24T09:06:37;48.13;;;27.17;;
9761;SDS011;4920;49.594;11.022;2023-02-24T09:09:10;70.80;;;40.20;;
9761;SDS011;4920;49.594;11.022;2023-02-24T09:11:48;78.40;;;57.60;;
9761;SDS011;4920;49.594;11.022;2023-02-24T09:14:24;67.37;;;46.53;;
9761;SDS011;4920;49.594;11.022;2023-02-24T09:16:55;50.13;;;29.20;;
9761;SDS011;4920;49.594;11.022;2023-02-24T09:19:36;63.93;;;38.90;;
9761;SDS011;4920;49.594;11.022;2023-02-24T09:22:26;44.20;;;26.13;;
9761;SDS011;4920;49.594;11.022;2023-02-24T09:25:08;38.93;;;22.67;;
9761;SDS011;4920;49.594;11.022;2023-02-24T09:27:48;40.83;;;24.53;;
9761;SDS011;4920;49.594;11.022;2023-02-24T09:30:25;38.57;;;22.33;;
9761;SDS011;4920;49.594;11.022;2023-02-24T09:33:05;39.47;;;22.57;;
9761;SDS011;4920;49.594;11.022;2023-02-24T09:35:45;40.03;;;23.93;;
9761;SDS011;4920;49.594;11.022;2023-02-24T09:38:15;39.43;;;22.97;;
9761;SDS011;4920;49.594;11.022;2023-02-24T09:40:46;41.77;;;24.80;;
9761;SDS011;4920;49.594;11.022;2023-02-24T09:43:19;38.90;;;21.73;;
9761;SDS011;4920;49.594;11.022;2023-02-24T09:45:58;36.97;;;20.77;;
9761;SDS011;4920;49.594;11.022;2023-02-24T09:48:41;34.37;;;20.57;;
9761;SDS011;4920;49.594;11.022;2023-02-24T09:51:20;37.97;;;21.57;;
9761;SDS011;4920;49.594;11.022;2023-02-24T09:53:53;37.20;;;20.60;;
9761;SDS011;4920;49.594;11.022;2023-02-24T09:56:28;36.70;;;21.43;;
9761;SDS011;4920;49.594;11.022;2023-02-24T09:59:05;34.13;;;21.00;;
9761;SDS011;4920;49.594;11.022;2023-02-24T10:01:43;33.70;;;19.70;;
9761;SDS011;4920;49.594;11.022;2023-02-24T10:04:17;30.77;;;19.10;;
9761;SDS011;4920;49.594;11.022;2023-02-24T10:07:01;34.37;;;20.87;;
9761;SDS011;4920;49.594;11.022;2023-02-24T10:09:33;37.43;;;20.97;;
9761;SDS011;4920;49.594;11.022;2023-02-24T10:12:05;31.47;;;19.30;;
9761;SDS011;4920;49.594;11.022;2023-02-24T10:14:44;31.17;;;19.27;;
9761;SDS011;4920;49.594;11.022;2023-02-24T10:17:21;27.90;;;18.00;;
9761;SDS011;4920;49.594;11.022;2023-02-24T10:19:56;33.90;;;17.97;;
9761;SDS011;4920;49.594;11.022;2023-02-24T10:22:37;31.33;;;18.43;;
9761;SDS011;4920;49.594;11.022;2023-02-24T10:25:18;34.23;;;18.80;;
9761;SDS011;4920;49.594;11.022;2023-02-24T10:27:56;32.33;;;19.17;;
9761;SDS011;4920;49.594;11.022;2023-02-24T10:30:33;33.83;;;19.57;;
9761;SDS011;4920;49.594;11.022;2023-02-24T10:33:18;31.13;;;19.47;;
9761;SDS011;4920;49.594;11.022;2023-02-24T10:36:03;33.43;;;19.23;;
9761;SDS011;4920;49.594;11.022;2023-02-24T10:38:35;27.93;;;17.23;;
9761;SDS011;4920;49.594;11.022;2023-02-24T10:41:07;31.27;;;16.90;;
9761;SDS011;4920;49.594;11.022;2023-02-24T10:43:37;25.07;;;15.43;;
9761;SDS011;4920;49.594;11.022;2023-02-24T10:46:22;27.63;;;16.03;;
9761;SDS011;4920;49.594;11.022;2023-02-24T10:49:09;25.30;;;15.13;;
9761;SDS011;4920;49.594;11.022;2023-02-24T10:51:46;26.50;;;14.90;;
9761;SDS011;4920;49.594;11.022;2023-02-24T10:54:19;27.03;;;15.30;;
9761;SDS011;4920;49.594;11.022;2023-02-24T10:57:12;26.13;;;15.47;;
9761;SDS011;4920;49.594;11.022;2023-02-24T10:59:51;29.20;;;15.50;;
9761;SDS011;4920;49.594;11.022;2023-02-24T11:02:48;21.57;;;14.20;;
9761;SDS011;4920;49.594;11.022;2023-02-24T11:18:20;21.90;;;11.45;;
9761;SDS011;4920;49.594;11.022;2023-02-24T11:21:21;19.20;;;12.05;;
9761;SDS011;4920;49.594;11.022;2023-02-24T11:23:52;23.70;;;11.77;;
9761;SDS011;4920;49.594;11.022;2023-02-24T11:26:25;22.58;;;11.25;;
9761;SDS011;4920;49.594;11.022;2023-02-24T11:29:02;22.88;;;11.52;;
9761;SDS011;4920;49.594;11.022;2023-02-24T11:31:44;20.05;;;11.88;;
9761;SDS011;4920;49.594;11.022;2023-02-24T11:34:27;23.15;;;12.40;;
9761;SDS011;4920;49.594;11.022;2023-02-24T11:37:06;21.17;;;10.87;;
9761;SDS011;4920;49.594;11.022;2023-02-24T11:39:54;19.83;;;10.73;;
9761;SDS011;4920;49.594;11.022;2023-02-24T11:42:26;19.73;;;10.77;;
9761;SDS011;4920;49.594;11.022;2023-02-24T11:45:00;19.67;;;11.27;;
9761;SDS011;4920;49.594;11.022;2023-02-24T11:47:38;20.53;;;11.97;;
9761;SDS011;4920;49.594;11.022;2023-02-24T11:53:09;21.47;;;10.90;;
9761;SDS011;4920;49.594;11.022;2023-02-24T11:55:53;18.47;;;10.90;;
9761;SDS011;4920;49.594;11.022;2023-02-24T11:58:33;17.93;;;10.80;;
9761;SDS011;4920;49.594;11.022;2023-02-24T12:01:11;24.50;;;11.47;;
9761;SDS011;4920;49.594;11.022;2023-02-24T12:03:54;22.63;;;12.60;;
9761;SDS011;4920;49.594;11.022;2023-02-24T12:06:33;22.10;;;11.50;;
9761;SDS011;4920;49.594;11.022;2023-02-24T12:09:10;34.00;;;21.90;;
9761;SDS011;4920;49.594;11.022;2023-02-24T12:11:44;24.40;;;13.70;;
9761;SDS011;4920;49.594;11.022;2023-02-24T12:14:22;22.07;;;12.57;;
9761;SDS011;4920;49.594;11.022;2023-02-24T12:16:57;23.07;;;14.73;;
9761;SDS011;4920;49.594;11.022;2023-02-24T12:19:36;18.83;;;12.27;;
9761;SDS011;4920;49.594;11.022;2023-02-24T12:22:17;16.60;;;10.63;;
9761;SDS011;4920;49.594;11.022;2023-02-24T12:24:47;21.57;;;11.73;;
9761;SDS011;4920;49.594;11.022;2023-02-24T12:27:25;18.27;;;11.03;;
9761;SDS011;4920;49.594;11.022;2023-02-24T12:30:18;19.90;;;11.93;;
9761;SDS011;4920;49.594;11.022;2023-02-24T12:33:22;20.50;;;12.10;;
9761;SDS011;4920;49.594;11.022;2023-02-24T12:36:01;17.53;;;11.07;;
9761;SDS011;4920;49.594;11.022;2023-02-24T12:38:41;21.33;;;10.47;;
9761;SDS011;4920;49.594;11.022;2023-02-24T12:41:23;26.10;;;11.60;;
9761;SDS011;4920;49.594;11.022;2023-02-24T12:44:18;16.37;;;10.23;;
9761;SDS011;4920;49.594;11.022;2023-02-24T12:46:56;18.80;;;10.63;;
9761;SDS011;4920;49.594;11.022;2023-02-24T12:52:36;20.00;;;10.83;;
9761;SDS011;4920;49.594;11.022;2023-02-24T12:55:20;16.80;;;10.47;;
9761;SDS011;4920;49.594;11.022;2023-02-24T12:57:56;17.13;;;10.43;;
9761;SDS011;4920;49.594;11.022;2023-02-24T13:00:32;21.77;;;11.50;;
9761;SDS011;4920;49.594;11.022;2023-02-24T13:03:07;21.23;;;10.53;;
9761;SDS011;4920;49.594;11.022;2023-02-24T13:05:49;21.80;;;12.30;;
9761;SDS011;4920;49.594;11.022;2023-02-24T13:08:26;21.47;;;10.10;;
9761;SDS011;4920;49.594;11.022;2023-02-24T13:11:06;20.47;;;10.63;;
9761;SDS011;4920;49.594;11.022;2023-02-24T13:13:43;18.30;;;10.93;;
9761;SDS011;4920;49.594;11.022;2023-02-24T13:16:26;22.03;;;12.30;;
9761;SDS011;4920;49.594;11.022;2023-02-24T13:25:48;19.27;;;9.70;;
9761;SDS011;4920;49.594;11.022;2023-02-24T13:32:29;19.23;;;9.60;;
9761;SDS011;4920;49.594;11.022;2023-02-24T13:35:00;18.70;;;8.90;;
9761;SDS011;4920;49.594;11.022;2023-02-24T13:37:32;16.00;;;9.00;;
9761;SDS011;4920;49.594;11.022;2023-02-24T13:40:20;16.17;;;9.60;;
9761;SDS011;4920;49.594;11.022;2023-02-24T13:45:57;19.50;;;10.10;;
9761;SDS011;4920;49.594;11.022;2023-02-24T13:48:38;21.90;;;13.20;;
9761;SDS011;4920;49.594;11.022;2023-02-24T13:51:18;17.03;;;9.60;;
9761;SDS011;4920;49.594;11.022;2023-02-24T13:57:19;17.40;;;9.30;;
9761;SDS011;4920;49.594;11.022;2023-02-24T14:00:07;19.27;;;9.73;;
9761;SDS011;4920;49.594;11.022;2023-02-24T14:02:48;19.13;;;9.37;;
9761;SDS011;4920;49.594;11.022;2023-02-24T14:05:20;15.67;;;9.57;;
9761;SDS011;4920;49.594;11.022;2023-02-24T14:07:52;20.30;;;9.20;;
9761;SDS011;4920;49.594;11.022;2023-02-24T14:10:22;20.17;;;9.43;;
9761;SDS011;4920;49.594;11.022;2023-02-24T14:12:56;18.93;;;9.20;;
9761;SDS011;4920;49.594;11.022;2023-02-24T14:15:31;20.57;;;8.97;;
9761;SDS011;4920;49.594;11.022;2023-02-24T14:18:02;21.43;;;9.57;;
9761;SDS011;4920;49.594;11.022;2023-02-24T14:20:33;18.43;;;9.10;;
9761;SDS011;4920;49.594;11.022;2023-02-24T14:23:18;17.87;;;9.40;;
9761;SDS011;4920;49.594;11.022;2023-02-24T14:25:51;19.73;;;9.37;;
9761;SDS011;4920;49.594;11.022;2023-02-24T14:28:23;17.67;;;9.43;;
9761;SDS011;4920;49.594;11.022;2023-02-24T14:30:58;19.07;;;9.37;;
9761;SDS011;4920;49.594;11.022;2023-02-24T14:33:35;18.07;;;9.70;;
9761;SDS011;4920;49.594;11.022;2023-02-24T14:36:06;21.77;;;9.80;;
9761;SDS011;4920;49.594;11.022;2023-02-24T14:38:43;23.70;;;9.83;;
9761;SDS011;4920;49.594;11.022;2023-02-24T14:41:15;16.00;;;8.93;;
9761;SDS011;4920;49.594;11.022;2023-02-24T14:43:48;16.10;;;9.37;;
9761;SDS011;4920;49.594;11.022;2023-02-24T14:46:18;15.27;;;8.97;;
9761;SDS011;4920;49.594;11.022;2023-02-24T14:48:51;14.73;;;8.60;;
9761;SDS011;4920;49.594;11.022;2023-02-24T14:51:21;14.73;;;8.77;;
9761;SDS011;4920;49.594;11.022;2023-02-24T14:53:54;15.60;;;8.73;;
9761;SDS011;4920;49.594;11.022;2023-02-24T14:56:27;17.33;;;8.67;;
9761;SDS011;4920;49.594;11.022;2023-02-24T14:58:58;15.87;;;8.43;;
9761;SDS011;4920;49.594;11.022;2023-02-24T15:01:33;16.87;;;8.30;;
9761;SDS011;4920;49.594;11.022;2023-02-24T15:04:09;19.53;;;8.87;;
9761;SDS011;4920;49.594;11.022;2023-02-24T15:06:40;19.47;;;8.60;;
9761;SDS011;4920;49.594;11.022;2023-02-24T15:09:11;16.97;;;9.13;;
9761;SDS011;4920;49.594;11.022;2023-02-24T15:11:44;16.73;;;9.30;;
9761;SDS011;4920;49.594;11.022;2023-02-24T15:14:18;17.43;;;9.33;;
9761;SDS011;4920;49.594;11.022;2023-02-24T15:16:51;17.50;;;9.37;;
9761;SDS011;4920;49.594;11.022;2023-02-24T15:19:24;14.43;;;8.23;;
9761;SDS011;4920;49.594;11.022;2023-02-24T15:21:54;19.97;;;9.47;;
9761;SDS011;4920;49.594;11.022;2023-02-24T15:24:24;17.77;;;9.20;;
9761;SDS011;4920;49.594;11.022;2023-02-24T15:26:55;15.67;;;9.13;;
9761;SDS011;4920;49.594;11.022;2023-02-24T15:29:26;16.80;;;8.73;;
9761;SDS011;4920;49.594;11.022;2023-02-24T15:31:58;18.00;;;9.70;;
9761;SDS011;4920;49.594;11.022;2023-02-24T15:34:33;16.83;;;9.60;;
9761;SDS011;4920;49.594;11.022;2023-02-24T15:37:11;18.63;;;9.47;;
9761;SDS011;4920;49.594;11.022;2023-02-24T15:39:43;20.33;;;9.57;;
9761;SDS011;4920;49.594;11.022;2023-02-24T15:42:16;17.60;;;9.37;;
9761;SDS011;4920;49.594;11.022;2023-02-24T15:44:54;20.17;;;9.20;;
9761;SDS011;4920;49.594;11.022;2023-02-24T15:47:26;18.33;;;9.70;;
9761;SDS011;4920;49.594;11.022;2023-02-24T15:50:03;22.10;;;9.83;;
9761;SDS011;4920;49.594;11.022;2023-02-24T15:52:37;19.23;;;9.93;;
9761;SDS011;4920;49.594;11.022;2023-02-24T15:55:09;19.93;;;9.87;;
9761;SDS011;4920;49.594;11.022;2023-02-24T15:57:38;20.10;;;10.43;;
9761;SDS011;4920;49.594;11.022;2023-02-24T16:00:07;17.60;;;9.80;;
9761;SDS011;4920;49.594;11.022;2023-02-24T16:02:40;19.23;;;9.90;;
9761;SDS011;4920;49.594;11.022;2023-02-24T16:05:11;17.73;;;9.60;;
9761;SDS011;4920;49.594;11.022;2023-02-24T16:07:41;15.73;;;9.43;;
9761;SDS011;4920;49.594;11.022;2023-02-24T16:10:14;19.77;;;9.63;;
9761;SDS011;4920;49.594;11.022;2023-02-24T16:12:48;20.43;;;9.70;;
9761;SDS011;4920;49.594;11.022;2023-02-24T16:15:20;18.07;;;9.50;;